sensor_id;sensor_type;location;lat;lon;timestamp;P1;durP1;ratioP1;P2;durP2;ratioP2
71707;SDS011;59556;37.994;-122.332;2022-11-20T00:01:40;19.33;;;10.23;;
71707;SDS011;59556;37.994;-122.332;2022-11-20T00:03:59;16.10;;;10.48;;
71707;SDS011;59556;37.994;-122.332;2022-11-20T00:06:26;24.88;;;11.95;;
71707;SDS011;59556;37.994;-122.332;2022-11-20T00:08:54;19.77;;;11.35;;
71707;SDS011;59556;37.994;-122.332;2022-11-20T00:11:22;21.05;;;11.50;;
71707;SDS011;59556;37.994;-122.332;2022-11-20T00:13:50;20.40;;;10.95;;
71707;SDS011;59556;37.994;-122.332;2022-11-20T00:16:19;17.70;;;10.93;;
71707;SDS011;59556;37.994;-122.332;2022-11-20T00:18:46;18.75;;;10.50;;
71707;SDS011;59556;37.994;-122.332;2022-11-20T00:21:19;24.40;;;10.27;;
71707;SDS011;59556;37.994;-122.332;2022-11-20T00:23:47;23.38;;;11.40;;
71707;SDS011;59556;37.994;-122.332;2022-11-20T00:26:15;23.27;;;10.15;;
71707;SDS011;59556;37.994;-122.332;2022-11-20T00:28:42;23.10;;;9.50;;
71707;SDS011;59556;37.994;-122.332;2022-11-20T00:31:13;35.42;;;11.27;;
71707;SDS011;59556;37.994;-122.332;2022-11-20T00:33:40;33.33;;;11.57;;
71707;SDS011;59556;37.994;-122.332;2022-11-20T00:36:08;39.25;;;13.73;;
71707;SDS011;59556;37.994;-122.332;2022-11-20T00:38:55;32.23;;;14.10;;
71707;SDS011;59556;37.994;-122.332;2022-11-20T00:41:22;27.85;;;12.52;;
71707;SDS011;59556;37.994;-122.332;2022-11-20T00:43:49;23.33;;;11.02;;
71707;SDS011;59556;37.994;-122.332;2022-11-20T00:46:18;31.70;;;11.50;;
71707;SDS011;59556;37.994;-122.332;2022-11-20T00:48:46;53.53;;;13.23;;
71707;SDS011;59556;37.994;-122.332;2022-11-20T00:51:13;87.13;;;15.43;;
71707;SDS011;59556;37.994;-122.332;2022-11-20T00:53:42;41.47;;;12.10;;
71707;SDS011;59556;37.994;-122.332;2022-11-20T00:56:15;35.13;;;10.75;;
71707;SDS011;59556;37.994;-122.332;2022-11-20T00:58:43;18.30;;;7.57;;
71707;SDS011;59556;37.994;-122.332;2022-11-20T01:01:20;27.40;;;7.15;;
71707;SDS011;59556;37.994;-122.332;2022-11-20T01:03:50;17.05;;;5.95;;
71707;SDS011;59556;37.994;-122.332;2022-11-20T01:06:18;11.60;;;4.90;;
71707;SDS011;59556;37.994;-122.332;2022-11-20T01:08:47;17.20;;;5.38;;
71707;SDS011;59556;37.994;-122.332;2022-11-20T01:11:16;10.13;;;4.50;;
71707;SDS011;59556;37.994;-122.332;2022-11-20T01:13:44;10.80;;;4.93;;
71707;SDS011;59556;37.994;-122.332;2022-11-20T01:16:13;10.93;;;5.05;;
71707;SDS011;59556;37.994;-122.332;2022-11-20T01:18:40;9.43;;;6.00;;
71707;SDS011;59556;37.994;-122.332;2022-11-20T01:21:08;8.88;;;5.13;;
71707;SDS011;59556;37.994;-122.332;2022-11-20T01:23:38;10.73;;;5.40;;
71707;SDS011;59556;37.994;-122.332;2022-11-20T01:26:07;10.70;;;5.80;;
71707;SDS011;59556;37.994;-122.332;2022-11-20T01:28:41;9.52;;;5.25;;
71707;SDS011;59556;37.994;-122.332;2022-11-20T01:31:15;10.20;;;6.20;;
71707;SDS011;59556;37.994;-122.332;2022-11-20T01:33:43;8.73;;;5.70;;
71707;SDS011;59556;37.994;-122.332;2022-11-20T01:36:11;9.60;;;6.00;;
71707;SDS011;59556;37.994;-122.332;2022-11-20T01:38:38;10.90;;;6.05;;
71707;SDS011;59556;37.994;-122.332;2022-11-20T01:41:05;10.93;;;6.45;;
71707;SDS011;59556;37.994;-122.332;2022-11-20T01:43:32;11.20;;;5.38;;
71707;SDS011;59556;37.994;-122.332;2022-11-20T01:46:00;11.23;;;6.88;;
71707;SDS011;59556;37.994;-122.332;2022-11-20T01:48:47;12.43;;;5.55;;
71707;SDS011;59556;37.994;-122.332;2022-11-20T01:53:55;12.38;;;5.88;;
71707;SDS011;59556;37.994;-122.332;2022-11-20T01:56:24;12.27;;;6.00;;
71707;SDS011;59556;37.994;-122.332;2022-11-20T01:58:54;10.90;;;5.28;;
71707;SDS011;59556;37.994;-122.332;2022-11-20T02:01:23;10.23;;;5.55;;
71707;SDS011;59556;37.994;-122.332;2022-11-20T02:03:49;8.07;;;5.57;;
71707;SDS011;59556;37.994;-122.332;2022-11-20T02:06:20;11.38;;;5.93;;
71707;SDS011;59556;37.994;-122.332;2022-11-20T02:08:50;9.43;;;6.07;;
71707;SDS011;59556;37.994;-122.332;2022-11-20T02:11:17;7.28;;;5.53;;
71707;SDS011;59556;37.994;-122.332;2022-11-20T02:13:44;9.65;;;5.57;;
71707;SDS011;59556;37.994;-122.332;2022-11-20T02:18:47;8.73;;;5.13;;
71707;SDS011;59556;37.994;-122.332;2022-11-20T02:26:21;7.50;;;5.15;;
71707;SDS011;59556;37.994;-122.332;2022-11-20T02:28:48;10.88;;;6.13;;
71707;SDS011;59556;37.994;-122.332;2022-11-20T02:31:15;5.78;;;5.05;;
71707;SDS011;59556;37.994;-122.332;2022-11-20T02:33:41;5.00;;;4.50;;
71707;SDS011;59556;37.994;-122.332;2022-11-20T02:36:08;7.72;;;5.05;;
71707;SDS011;59556;37.994;-122.332;2022-11-20T02:38:38;7.90;;;4.47;;
71707;SDS011;59556;37.994;-122.332;2022-11-20T02:41:04;6.63;;;4.93;;
71707;SDS011;59556;37.994;-122.332;2022-11-20T02:43:30;6.03;;;4.82;;
71707;SDS011;59556;37.994;-122.332;2022-11-20T02:45:56;6.35;;;5.07;;
71707;SDS011;59556;37.994;-122.332;2022-11-20T02:48:23;8.27;;;5.05;;
71707;SDS011;59556;37.994;-122.332;2022-11-20T02:50:50;10.02;;;5.57;;
71707;SDS011;59556;37.994;-122.332;2022-11-20T02:53:16;7.80;;;5.82;;
71707;SDS011;59556;37.994;-122.332;2022-11-20T02:55:42;8.43;;;5.68;;
71707;SDS011;59556;37.994;-122.332;2022-11-20T02:58:09;7.03;;;4.93;;
71707;SDS011;59556;37.994;-122.332;2022-11-20T03:00:35;8.20;;;5.80;;
71707;SDS011;59556;37.994;-122.332;2022-11-20T03:03:01;10.73;;;6.13;;
71707;SDS011;59556;37.994;-122.332;2022-11-20T03:05:27;7.78;;;5.57;;
71707;SDS011;59556;37.994;-122.332;2022-11-20T03:07:53;8.23;;;5.85;;
71707;SDS011;59556;37.994;-122.332;2022-11-20T03:10:20;7.68;;;4.90;;
71707;SDS011;59556;37.994;-122.332;2022-11-20T03:12:46;7.50;;;5.65;;
71707;SDS011;59556;37.994;-122.332;2022-11-20T03:15:12;6.57;;;5.40;;
71707;SDS011;59556;37.994;-122.332;2022-11-20T03:17:38;8.68;;;5.82;;
71707;SDS011;59556;37.994;-122.332;2022-11-20T03:20:05;8.73;;;5.47;;
71707;SDS011;59556;37.994;-122.332;2022-11-20T03:22:31;9.20;;;5.78;;
71707;SDS011;59556;37.994;-122.332;2022-11-20T03:24:58;14.85;;;6.10;;
71707;SDS011;59556;37.994;-122.332;2022-11-20T03:27:24;9.05;;;6.00;;
71707;SDS011;59556;37.994;-122.332;2022-11-20T03:29:50;7.68;;;5.30;;
71707;SDS011;59556;37.994;-122.332;2022-11-20T03:32:18;8.45;;;6.53;;
71707;SDS011;59556;37.994;-122.332;2022-11-20T03:34:44;7.68;;;6.10;;
71707;SDS011;59556;37.994;-122.332;2022-11-20T03:37:10;8.60;;;6.60;;
71707;SDS011;59556;37.994;-122.332;2022-11-20T03:39:36;8.98;;;6.70;;
71707;SDS011;59556;37.994;-122.332;2022-11-20T03:42:03;9.05;;;6.05;;
71707;SDS011;59556;37.994;-122.332;2022-11-20T03:44:49;9.65;;;6.65;;
71707;SDS011;59556;37.994;-122.332;2022-11-20T03:47:15;9.75;;;7.28;;
71707;SDS011;59556;37.994;-122.332;2022-11-20T03:49:41;9.90;;;6.88;;
71707;SDS011;59556;37.994;-122.332;2022-11-20T03:52:07;9.43;;;6.57;;
71707;SDS011;59556;37.994;-122.332;2022-11-20T03:54:33;8.27;;;6.53;;
71707;SDS011;59556;37.994;-122.332;2022-11-20T03:56:59;9.90;;;7.10;;
71707;SDS011;59556;37.994;-122.332;2022-11-20T03:59:26;8.77;;;6.97;;
71707;SDS011;59556;37.994;-122.332;2022-11-20T04:01:52;9.98;;;7.28;;
71707;SDS011;59556;37.994;-122.332;2022-11-20T04:04:19;10.73;;;7.90;;
71707;SDS011;59556;37.994;-122.332;2022-11-20T04:06:45;9.48;;;6.95;;
71707;SDS011;59556;37.994;-122.332;2022-11-20T04:09:12;12.00;;;7.88;;
71707;SDS011;59556;37.994;-122.332;2022-11-20T04:11:39;9.55;;;6.85;;
71707;SDS011;59556;37.994;-122.332;2022-11-20T04:14:06;10.43;;;8.02;;
71707;SDS011;59556;37.994;-122.332;2022-11-20T04:16:39;11.60;;;7.70;;
71707;SDS011;59556;37.994;-122.332;2022-11-20T04:19:06;10.90;;;8.60;;
71707;SDS011;59556;37.994;-122.332;2022-11-20T04:21:35;8.60;;;7.07;;
71707;SDS011;59556;37.994;-122.332;2022-11-20T04:24:02;9.38;;;7.53;;
71707;SDS011;59556;37.994;-122.332;2022-11-20T04:26:28;11.75;;;8.07;;
71707;SDS011;59556;37.994;-122.332;2022-11-20T04:28:55;10.05;;;7.75;;
71707;SDS011;59556;37.994;-122.332;2022-11-20T04:31:23;10.00;;;7.55;;
71707;SDS011;59556;37.994;-122.332;2022-11-20T04:33:53;11.88;;;8.02;;
71707;SDS011;59556;37.994;-122.332;2022-11-20T04:36:20;11.80;;;8.73;;
71707;SDS011;59556;37.994;-122.332;2022-11-20T04:38:55;9.18;;;7.47;;
71707;SDS011;59556;37.994;-122.332;2022-11-20T04:41:23;13.90;;;7.75;;
71707;SDS011;59556;37.994;-122.332;2022-11-20T04:43:51;11.32;;;8.32;;
71707;SDS011;59556;37.994;-122.332;2022-11-20T04:46:24;9.30;;;7.88;;
71707;SDS011;59556;37.994;-122.332;2022-11-20T04:48:53;9.82;;;7.60;;
71707;SDS011;59556;37.994;-122.332;2022-11-20T04:51:19;10.05;;;7.43;;
71707;SDS011;59556;37.994;-122.332;2022-11-20T04:53:46;10.77;;;7.47;;
71707;SDS011;59556;37.994;-122.332;2022-11-20T04:56:12;11.18;;;6.97;;
71707;SDS011;59556;37.994;-122.332;2022-11-20T04:58:39;9.43;;;6.70;;
71707;SDS011;59556;37.994;-122.332;2022-11-20T05:01:07;11.38;;;6.90;;
71707;SDS011;59556;37.994;-122.332;2022-11-20T05:03:38;11.95;;;7.38;;
71707;SDS011;59556;37.994;-122.332;2022-11-20T05:06:05;11.10;;;8.23;;
71707;SDS011;59556;37.994;-122.332;2022-11-20T05:08:32;8.20;;;6.10;;
71707;SDS011;59556;37.994;-122.332;2022-11-20T05:11:06;12.13;;;8.02;;
71707;SDS011;59556;37.994;-122.332;2022-11-20T05:13:33;11.27;;;6.60;;
71707;SDS011;59556;37.994;-122.332;2022-11-20T05:16:03;7.70;;;6.43;;
71707;SDS011;59556;37.994;-122.332;2022-11-20T05:18:30;7.22;;;5.70;;
71707;SDS011;59556;37.994;-122.332;2022-11-20T05:20:57;8.95;;;6.22;;
71707;SDS011;59556;37.994;-122.332;2022-11-20T05:23:24;8.00;;;5.28;;
71707;SDS011;59556;37.994;-122.332;2022-11-20T05:25:54;10.70;;;6.50;;
71707;SDS011;59556;37.994;-122.332;2022-11-20T05:28:21;22.90;;;6.30;;
71707;SDS011;59556;37.994;-122.332;2022-11-20T05:30:48;24.48;;;6.47;;
71707;SDS011;59556;37.994;-122.332;2022-11-20T05:33:15;22.77;;;6.53;;
71707;SDS011;59556;37.994;-122.332;2022-11-20T05:35:41;12.52;;;5.53;;
71707;SDS011;59556;37.994;-122.332;2022-11-20T05:38:08;17.70;;;5.50;;
71707;SDS011;59556;37.994;-122.332;2022-11-20T05:40:34;14.98;;;5.45;;
71707;SDS011;59556;37.994;-122.332;2022-11-20T05:43:00;11.38;;;4.60;;
71707;SDS011;59556;37.994;-122.332;2022-11-20T05:45:27;16.23;;;5.68;;
71707;SDS011;59556;37.994;-122.332;2022-11-20T05:47:53;19.25;;;5.22;;
71707;SDS011;59556;37.994;-122.332;2022-11-20T05:50:22;9.60;;;4.75;;
71707;SDS011;59556;37.994;-122.332;2022-11-20T05:52:49;9.07;;;3.75;;
71707;SDS011;59556;37.994;-122.332;2022-11-20T05:55:15;15.60;;;4.78;;
71707;SDS011;59556;37.994;-122.332;2022-11-20T05:57:41;12.48;;;4.03;;
71707;SDS011;59556;37.994;-122.332;2022-11-20T06:00:07;13.50;;;4.47;;
71707;SDS011;59556;37.994;-122.332;2022-11-20T06:02:35;12.77;;;3.58;;
71707;SDS011;59556;37.994;-122.332;2022-11-20T06:05:01;11.48;;;3.30;;
71707;SDS011;59556;37.994;-122.332;2022-11-20T06:07:27;8.77;;;3.88;;
71707;SDS011;59556;37.994;-122.332;2022-11-20T06:09:54;7.00;;;3.22;;
71707;SDS011;59556;37.994;-122.332;2022-11-20T06:12:20;7.47;;;3.13;;
71707;SDS011;59556;37.994;-122.332;2022-11-20T06:14:46;7.72;;;3.63;;
71707;SDS011;59556;37.994;-122.332;2022-11-20T06:17:13;10.57;;;4.15;;
71707;SDS011;59556;37.994;-122.332;2022-11-20T06:19:39;20.40;;;4.25;;
71707;SDS011;59556;37.994;-122.332;2022-11-20T06:22:05;18.17;;;3.38;;
71707;SDS011;59556;37.994;-122.332;2022-11-20T06:24:31;9.70;;;2.45;;
71707;SDS011;59556;37.994;-122.332;2022-11-20T06:26:57;10.45;;;2.80;;
71707;SDS011;59556;37.994;-122.332;2022-11-20T06:29:24;12.00;;;2.97;;
71707;SDS011;59556;37.994;-122.332;2022-11-20T06:31:50;12.23;;;3.22;;
71707;SDS011;59556;37.994;-122.332;2022-11-20T06:34:16;10.65;;;2.45;;
71707;SDS011;59556;37.994;-122.332;2022-11-20T06:36:42;7.05;;;2.55;;
71707;SDS011;59556;37.994;-122.332;2022-11-20T06:39:08;4.55;;;1.70;;
71707;SDS011;59556;37.994;-122.332;2022-11-20T06:41:35;5.32;;;2.10;;
71707;SDS011;59556;37.994;-122.332;2022-11-20T06:44:01;6.15;;;1.88;;
71707;SDS011;59556;37.994;-122.332;2022-11-20T06:46:30;5.72;;;2.13;;
71707;SDS011;59556;37.994;-122.332;2022-11-20T06:48:56;5.18;;;1.85;;
71707;SDS011;59556;37.994;-122.332;2022-11-20T06:51:23;4.97;;;1.58;;
71707;SDS011;59556;37.994;-122.332;2022-11-20T06:53:50;3.92;;;1.73;;
71707;SDS011;59556;37.994;-122.332;2022-11-20T06:56:16;4.70;;;1.60;;
71707;SDS011;59556;37.994;-122.332;2022-11-20T06:58:42;2.90;;;1.20;;
71707;SDS011;59556;37.994;-122.332;2022-11-20T07:01:10;3.50;;;1.33;;
71707;SDS011;59556;37.994;-122.332;2022-11-20T07:03:37;5.03;;;1.63;;
71707;SDS011;59556;37.994;-122.332;2022-11-20T07:06:04;21.65;;;1.40;;
71707;SDS011;59556;37.994;-122.332;2022-11-20T07:08:31;6.00;;;1.33;;
71707;SDS011;59556;37.994;-122.332;2022-11-20T07:10:58;3.92;;;1.23;;
71707;SDS011;59556;37.994;-122.332;2022-11-20T07:13:26;2.00;;;0.90;;
71707;SDS011;59556;37.994;-122.332;2022-11-20T07:15:52;1.80;;;1.08;;
71707;SDS011;59556;37.994;-122.332;2022-11-20T07:18:19;6.95;;;1.45;;
71707;SDS011;59556;37.994;-122.332;2022-11-20T07:20:45;1.10;;;0.85;;
71707;SDS011;59556;37.994;-122.332;2022-11-20T07:23:11;1.20;;;0.90;;
71707;SDS011;59556;37.994;-122.332;2022-11-20T07:25:37;1.73;;;0.93;;
71707;SDS011;59556;37.994;-122.332;2022-11-20T07:28:03;1.25;;;0.70;;
71707;SDS011;59556;37.994;-122.332;2022-11-20T07:30:30;4.55;;;0.80;;
71707;SDS011;59556;37.994;-122.332;2022-11-20T07:32:56;1.40;;;0.60;;
71707;SDS011;59556;37.994;-122.332;2022-11-20T07:35:23;2.72;;;1.13;;
71707;SDS011;59556;37.994;-122.332;2022-11-20T07:37:49;1.27;;;0.90;;
71707;SDS011;59556;37.994;-122.332;2022-11-20T07:40:16;1.48;;;0.80;;
71707;SDS011;59556;37.994;-122.332;2022-11-20T07:42:49;0.60;;;0.50;;
71707;SDS011;59556;37.994;-122.332;2022-11-20T07:45:17;0.85;;;0.63;;
71707;SDS011;59556;37.994;-122.332;2022-11-20T07:47:43;0.60;;;0.40;;
71707;SDS011;59556;37.994;-122.332;2022-11-20T07:50:10;0.75;;;0.50;;
71707;SDS011;59556;37.994;-122.332;2022-11-20T07:52:36;0.73;;;0.73;;
71707;SDS011;59556;37.994;-122.332;2022-11-20T07:55:03;0.40;;;0.30;;
71707;SDS011;59556;37.994;-122.332;2022-11-20T07:57:30;0.47;;;0.45;;
71707;SDS011;59556;37.994;-122.332;2022-11-20T07:59:57;0.20;;;0.20;;
71707;SDS011;59556;37.994;-122.332;2022-11-20T08:02:24;0.50;;;0.40;;
71707;SDS011;59556;37.994;-122.332;2022-11-20T08:04:50;0.75;;;0.50;;
71707;SDS011;59556;37.994;-122.332;2022-11-20T08:07:16;0.28;;;0.25;;
71707;SDS011;59556;37.994;-122.332;2022-11-20T08:09:43;1.08;;;0.32;;
71707;SDS011;59556;37.994;-122.332;2022-11-20T08:12:11;0.50;;;0.30;;
71707;SDS011;59556;37.994;-122.332;2022-11-20T08:15:04;0.30;;;0.20;;
71707;SDS011;59556;37.994;-122.332;2022-11-20T08:17:31;0.30;;;0.30;;
71707;SDS011;59556;37.994;-122.332;2022-11-20T08:19:57;0.22;;;0.20;;
71707;SDS011;59556;37.994;-122.332;2022-11-20T08:22:23;0.30;;;0.20;;
71707;SDS011;59556;37.994;-122.332;2022-11-20T08:24:50;1.63;;;0.47;;
71707;SDS011;59556;37.994;-122.332;2022-11-20T08:27:16;1.70;;;0.50;;
71707;SDS011;59556;37.994;-122.332;2022-11-20T08:29:43;0.40;;;0.40;;
71707;SDS011;59556;37.994;-122.332;2022-11-20T08:32:09;1.30;;;0.70;;
71707;SDS011;59556;37.994;-122.332;2022-11-20T08:34:35;0.47;;;0.43;;
71707;SDS011;59556;37.994;-122.332;2022-11-20T08:37:04;0.20;;;0.20;;
71707;SDS011;59556;37.994;-122.332;2022-11-20T08:39:30;0.30;;;0.30;;
71707;SDS011;59556;37.994;-122.332;2022-11-20T08:41:56;1.48;;;0.43;;
71707;SDS011;59556;37.994;-122.332;2022-11-20T08:44:24;0.32;;;0.30;;
71707;SDS011;59556;37.994;-122.332;2022-11-20T08:46:50;1.75;;;0.40;;
71707;SDS011;59556;37.994;-122.332;2022-11-20T08:49:16;0.52;;;0.25;;
71707;SDS011;59556;37.994;-122.332;2022-11-20T08:51:43;0.30;;;0.20;;
71707;SDS011;59556;37.994;-122.332;2022-11-20T08:54:10;1.30;;;0.32;;
71707;SDS011;59556;37.994;-122.332;2022-11-20T08:56:36;0.17;;;0.17;;
71707;SDS011;59556;37.994;-122.332;2022-11-20T08:59:02;0.38;;;0.28;;
71707;SDS011;59556;37.994;-122.332;2022-11-20T09:01:28;0.50;;;0.50;;
71707;SDS011;59556;37.994;-122.332;2022-11-20T09:03:55;0.30;;;0.20;;
71707;SDS011;59556;37.994;-122.332;2022-11-20T09:06:25;0.20;;;0.10;;
71707;SDS011;59556;37.994;-122.332;2022-11-20T09:08:52;0.38;;;0.30;;
71707;SDS011;59556;37.994;-122.332;2022-11-20T09:11:18;0.20;;;0.20;;
71707;SDS011;59556;37.994;-122.332;2022-11-20T09:13:44;0.20;;;0.15;;
71707;SDS011;59556;37.994;-122.332;2022-11-20T09:16:11;0.45;;;0.35;;
71707;SDS011;59556;37.994;-122.332;2022-11-20T09:18:37;0.13;;;0.10;;
71707;SDS011;59556;37.994;-122.332;2022-11-20T09:21:05;0.10;;;0.10;;
71707;SDS011;59556;37.994;-122.332;2022-11-20T09:23:33;0.30;;;0.20;;
71707;SDS011;59556;37.994;-122.332;2022-11-20T09:26:04;0.47;;;0.47;;
71707;SDS011;59556;37.994;-122.332;2022-11-20T09:28:31;0.13;;;0.10;;
71707;SDS011;59556;37.994;-122.332;2022-11-20T09:30:58;0.52;;;0.20;;
71707;SDS011;59556;37.994;-122.332;2022-11-20T09:33:24;0.30;;;0.30;;
71707;SDS011;59556;37.994;-122.332;2022-11-20T09:35:51;0.10;;;0.10;;
71707;SDS011;59556;37.994;-122.332;2022-11-20T09:38:17;0.20;;;0.20;;
71707;SDS011;59556;37.994;-122.332;2022-11-20T09:40:45;0.10;;;0.10;;
71707;SDS011;59556;37.994;-122.332;2022-11-20T09:43:28;0.25;;;0.10;;
71707;SDS011;59556;37.994;-122.332;2022-11-20T09:46:38;0.10;;;0.10;;
71707;SDS011;59556;37.994;-122.332;2022-11-20T09:51:59;0.10;;;0.10;;
71707;SDS011;59556;37.994;-122.332;2022-11-20T09:54:36;0.30;;;0.30;;
71707;SDS011;59556;37.994;-122.332;2022-11-20T09:57:25;0.17;;;0.17;;
71707;SDS011;59556;37.994;-122.332;2022-11-20T10:00:11;1.00;;;0.13;;
71707;SDS011;59556;37.994;-122.332;2022-11-20T10:05:39;1.35;;;0.10;;
71707;SDS011;59556;37.994;-122.332;2022-11-20T10:08:17;0.45;;;0.28;;
71707;SDS011;59556;37.994;-122.332;2022-11-20T10:10:49;0.20;;;0.20;;
71707;SDS011;59556;37.994;-122.332;2022-11-20T10:13:39;0.03;;;0.03;;
71707;SDS011;59556;37.994;-122.332;2022-11-20T10:16:19;0.40;;;0.10;;
71707;SDS011;59556;37.994;-122.332;2022-11-20T10:19:14;0.10;;;0.10;;
71707;SDS011;59556;37.994;-122.332;2022-11-20T10:22:13;0.17;;;0.17;;
71707;SDS011;59556;37.994;-122.332;2022-11-20T10:30:15;0.08;;;0.08;;
71707;SDS011;59556;37.994;-122.332;2022-11-20T10:32:47;0.20;;;0.20;;
71707;SDS011;59556;37.994;-122.332;2022-11-20T10:35:26;1.52;;;0.40;;
71707;SDS011;59556;37.994;-122.332;2022-11-20T10:37:55;0.20;;;0.20;;
71707;SDS011;59556;37.994;-122.332;2022-11-20T10:40:43;0.10;;;0.10;;
71707;SDS011;59556;37.994;-122.332;2022-11-20T10:46:00;0.47;;;0.47;;
71707;SDS011;59556;37.994;-122.332;2022-11-20T10:48:29;2.47;;;0.20;;
71707;SDS011;59556;37.994;-122.332;2022-11-20T10:50:59;0.20;;;0.20;;
71707;SDS011;59556;37.994;-122.332;2022-11-20T10:53:45;0.55;;;0.35;;
71707;SDS011;59556;37.994;-122.332;2022-11-20T10:56:27;0.10;;;0.10;;
71707;SDS011;59556;37.994;-122.332;2022-11-20T11:01:45;0.20;;;0.10;;
71707;SDS011;59556;37.994;-122.332;2022-11-20T11:04:33;0.13;;;0.10;;
71707;SDS011;59556;37.994;-122.332;2022-11-20T11:07:10;2.10;;;0.20;;
71707;SDS011;59556;37.994;-122.332;2022-11-20T11:09:39;0.35;;;0.15;;
71707;SDS011;59556;37.994;-122.332;2022-11-20T11:12:09;0.22;;;0.20;;
71707;SDS011;59556;37.994;-122.332;2022-11-20T11:14:49;0.25;;;0.17;;
71707;SDS011;59556;37.994;-122.332;2022-11-20T11:17:24;0.20;;;0.15;;
71707;SDS011;59556;37.994;-122.332;2022-11-20T11:19:59;0.10;;;0.10;;
71707;SDS011;59556;37.994;-122.332;2022-11-20T11:22:31;0.10;;;0.10;;
71707;SDS011;59556;37.994;-122.332;2022-11-20T11:25:07;0.20;;;0.20;;
71707;SDS011;59556;37.994;-122.332;2022-11-20T11:27:48;0.30;;;0.10;;
71707;SDS011;59556;37.994;-122.332;2022-11-20T11:30:16;0.20;;;0.20;;
71707;SDS011;59556;37.994;-122.332;2022-11-20T11:32:43;0.20;;;0.20;;
71707;SDS011;59556;37.994;-122.332;2022-11-20T11:35:21;0.10;;;0.10;;
71707;SDS011;59556;37.994;-122.332;2022-11-20T11:37:49;0.10;;;0.10;;
71707;SDS011;59556;37.994;-122.332;2022-11-20T11:40:17;0.20;;;0.20;;
71707;SDS011;59556;37.994;-122.332;2022-11-20T11:42:46;0.20;;;0.20;;
71707;SDS011;59556;37.994;-122.332;2022-11-20T11:45:20;0.35;;;0.30;;
71707;SDS011;59556;37.994;-122.332;2022-11-20T11:47:47;0.20;;;0.20;;
71707;SDS011;59556;37.994;-122.332;2022-11-20T11:50:19;0.10;;;0.10;;
71707;SDS011;59556;37.994;-122.332;2022-11-20T11:53:02;0.43;;;0.10;;
71707;SDS011;59556;37.994;-122.332;2022-11-20T11:55:56;0.10;;;0.10;;
71707;SDS011;59556;37.994;-122.332;2022-11-20T11:58:39;0.20;;;0.13;;
71707;SDS011;59556;37.994;-122.332;2022-11-20T12:04:19;0.68;;;0.17;;
71707;SDS011;59556;37.994;-122.332;2022-11-20T12:07:06;0.20;;;0.10;;
71707;SDS011;59556;37.994;-122.332;2022-11-20T12:09:54;0.43;;;0.20;;
71707;SDS011;59556;37.994;-122.332;2022-11-20T12:12:24;0.30;;;0.20;;
71707;SDS011;59556;37.994;-122.332;2022-11-20T12:15:12;1.90;;;0.28;;
71707;SDS011;59556;37.994;-122.332;2022-11-20T12:17:48;0.17;;;0.13;;
71707;SDS011;59556;37.994;-122.332;2022-11-20T12:20:14;0.55;;;0.20;;
71707;SDS011;59556;37.994;-122.332;2022-11-20T12:22:44;0.43;;;0.20;;
71707;SDS011;59556;37.994;-122.332;2022-11-20T12:25:24;0.50;;;0.38;;
71707;SDS011;59556;37.994;-122.332;2022-11-20T12:28:03;0.20;;;0.20;;
71707;SDS011;59556;37.994;-122.332;2022-11-20T12:31:14;0.30;;;0.22;;
71707;SDS011;59556;37.994;-122.332;2022-11-20T12:39:22;0.20;;;0.20;;
71707;SDS011;59556;37.994;-122.332;2022-11-20T12:53:51;1.23;;;0.10;;
71707;SDS011;59556;37.994;-122.332;2022-11-20T12:56:43;0.40;;;0.20;;
71707;SDS011;59556;37.994;-122.332;2022-11-20T13:07:28;0.17;;;0.10;;
71707;SDS011;59556;37.994;-122.332;2022-11-20T13:09:59;0.52;;;0.25;;
71707;SDS011;59556;37.994;-122.332;2022-11-20T13:15:19;0.03;;;0.03;;
71707;SDS011;59556;37.994;-122.332;2022-11-20T13:20:17;0.10;;;0.10;;
71707;SDS011;59556;37.994;-122.332;2022-11-20T13:22:51;0.00;;;0.00;;
71707;SDS011;59556;37.994;-122.332;2022-11-20T13:25:36;0.13;;;0.13;;
71707;SDS011;59556;37.994;-122.332;2022-11-20T13:28:04;0.10;;;0.10;;
71707;SDS011;59556;37.994;-122.332;2022-11-20T13:30:31;0.30;;;0.25;;
71707;SDS011;59556;37.994;-122.332;2022-11-20T13:35:31;0.30;;;0.15;;
71707;SDS011;59556;37.994;-122.332;2022-11-20T13:38:09;0.13;;;0.10;;
71707;SDS011;59556;37.994;-122.332;2022-11-20T13:40:37;0.10;;;0.10;;
71707;SDS011;59556;37.994;-122.332;2022-11-20T13:43:28;0.10;;;0.10;;
71707;SDS011;59556;37.994;-122.332;2022-11-20T13:46:02;2.08;;;0.73;;
71707;SDS011;59556;37.994;-122.332;2022-11-20T13:48:31;0.10;;;0.10;;
71707;SDS011;59556;37.994;-122.332;2022-11-20T13:58:57;0.17;;;0.15;;
71707;SDS011;59556;37.994;-122.332;2022-11-20T14:01:26;0.20;;;0.20;;
71707;SDS011;59556;37.994;-122.332;2022-11-20T14:03:56;0.25;;;0.22;;
71707;SDS011;59556;37.994;-122.332;2022-11-20T14:06:30;0.45;;;0.10;;
71707;SDS011;59556;37.994;-122.332;2022-11-20T14:09:28;0.08;;;0.08;;
71707;SDS011;59556;37.994;-122.332;2022-11-20T14:11:58;0.20;;;0.10;;
71707;SDS011;59556;37.994;-122.332;2022-11-20T14:14:27;0.15;;;0.10;;
71707;SDS011;59556;37.994;-122.332;2022-11-20T14:17:07;0.10;;;0.10;;
71707;SDS011;59556;37.994;-122.332;2022-11-20T14:19:39;2.05;;;0.25;;
71707;SDS011;59556;37.994;-122.332;2022-11-20T14:24:34;0.10;;;0.10;;
71707;SDS011;59556;37.994;-122.332;2022-11-20T14:27:01;0.20;;;0.20;;
71707;SDS011;59556;37.994;-122.332;2022-11-20T14:29:34;0.57;;;0.25;;
71707;SDS011;59556;37.994;-122.332;2022-11-20T14:32:02;0.20;;;0.10;;
71707;SDS011;59556;37.994;-122.332;2022-11-20T14:34:29;0.28;;;0.00;;
71707;SDS011;59556;37.994;-122.332;2022-11-20T14:36:58;0.10;;;0.10;;
71707;SDS011;59556;37.994;-122.332;2022-11-20T14:39:33;1.35;;;0.28;;
71707;SDS011;59556;37.994;-122.332;2022-11-20T14:42:01;0.10;;;0.10;;
71707;SDS011;59556;37.994;-122.332;2022-11-20T14:44:30;0.80;;;0.10;;
71707;SDS011;59556;37.994;-122.332;2022-11-20T14:46:59;0.10;;;0.10;;
71707;SDS011;59556;37.994;-122.332;2022-11-20T14:49:26;1.65;;;0.10;;
71707;SDS011;59556;37.994;-122.332;2022-11-20T14:52:00;0.05;;;0.05;;
71707;SDS011;59556;37.994;-122.332;2022-11-20T14:54:27;0.03;;;0.03;;
71707;SDS011;59556;37.994;-122.332;2022-11-20T14:56:59;0.13;;;0.10;;
71707;SDS011;59556;37.994;-122.332;2022-11-20T14:59:31;0.10;;;0.10;;
71707;SDS011;59556;37.994;-122.332;2022-11-20T15:04:56;0.10;;;0.10;;
71707;SDS011;59556;37.994;-122.332;2022-11-20T15:07:28;1.92;;;0.20;;
71707;SDS011;59556;37.994;-122.332;2022-11-20T15:09:59;0.10;;;0.10;;
71707;SDS011;59556;37.994;-122.332;2022-11-20T15:12:30;1.90;;;0.10;;
71707;SDS011;59556;37.994;-122.332;2022-11-20T15:14:57;0.00;;;0.00;;
71707;SDS011;59556;37.994;-122.332;2022-11-20T15:17:24;0.47;;;0.28;;
71707;SDS011;59556;37.994;-122.332;2022-11-20T15:19:52;0.10;;;0.10;;
71707;SDS011;59556;37.994;-122.332;2022-11-20T15:22:19;0.20;;;0.10;;
71707;SDS011;59556;37.994;-122.332;2022-11-20T15:24:45;0.30;;;0.20;;
71707;SDS011;59556;37.994;-122.332;2022-11-20T15:27:12;0.10;;;0.10;;
71707;SDS011;59556;37.994;-122.332;2022-11-20T15:29:38;0.08;;;0.08;;
71707;SDS011;59556;37.994;-122.332;2022-11-20T15:32:04;0.10;;;0.10;;
71707;SDS011;59556;37.994;-122.332;2022-11-20T15:34:30;0.63;;;0.08;;
71707;SDS011;59556;37.994;-122.332;2022-11-20T15:36:56;0.20;;;0.20;;